Search for airport 
image banner adimage banner adimage banner ad
image banner ad

PN45 - Wyoming Valley Medical Center

Located in Wilkes-Barre, United States

ICAO - PN45, IATA -

Data provided by Airmate  

General information

Coordinates: N41°15'28" W75°48'30"
Elevation is 967 feet MSL.
Magnetic variation is -12° East
View others Airports in Pennsylvania

Operational data

Special qualification required
Current time UTC:
Current local time:
Weather at : KAVP - Wilkes-Barre/Scranton Intl ( 11 km )
METAR: KAVP 061254Z 35011KT 10SM FEW030 10/03 A3001 RMK AO2 SLP163 T01000028
TAF: KAVP 061130Z 0612/0712 34010G17KT P6SM SCT025 TEMPO 0612/0614 BKN025 FM061500 34010G17KT P6SM SCT250 FM062200 35007KT P6SM SCT150 FM070100 07004KT P6SM SCT150
View NOTAMs / SUP AIP / TFR affecting this airport [VIEW]
Communications frequencies: [VIEW]

Runways:

Airport contact information

Address: Wilkes-Barre United States

Satellite view of PN45